Alkabo, North Dakota
Current Conditions -  °F | °C
As of 2:52 AM on Saturday 25 Oct 2014 (Local Time) from KISN Reporting Station
Clear Clear  
Wind Chill: 42°   Ceiling: Unl
Heat Index: 44°   Visibility: 10mi
Dew Point: 29°   Wind: 5mph
Humidity: 55%   Direction: 210°SSW
Pressure: 30.08"   Gusts: NA
Location:  48.5901°N, 103.922°W
Report Text: KISN 250752Z AUTO 21004KT 10SM CLR 07/M02 A3008 RMK AO2 SLP194 T00671017
Loading
Personal Weather Stations






























Interactive Weather Map New forecast layout! Learn more

10-Day Weather Forecast

Advertisements
Track Severe Weather on mobile